createdAt,value
2022-10-20T00:01:16.010Z,8.68
2022-10-20T00:03:42.642Z,8.13
2022-10-20T00:06:20.878Z,8.32
2022-10-20T00:08:50.596Z,8.75
2022-10-20T00:11:18.902Z,8.18
2022-10-20T00:13:47.243Z,8.00
2022-10-20T00:16:17.608Z,7.95
2022-10-20T00:18:44.689Z,8.40
2022-10-20T00:21:19.251Z,8.23
2022-10-20T00:23:47.443Z,7.63
2022-10-20T00:26:17.079Z,8.32
2022-10-20T00:28:43.832Z,7.35
2022-10-20T00:31:11.746Z,8.00
2022-10-20T00:33:40.738Z,7.82
2022-10-20T00:36:11.071Z,7.88
2022-10-20T00:38:37.763Z,7.18
2022-10-20T00:41:04.557Z,7.70
2022-10-20T00:43:53.056Z,7.35
2022-10-20T00:46:23.051Z,7.57
2022-10-20T00:48:54.047Z,7.40
2022-10-20T00:51:24.685Z,7.68
2022-10-20T00:53:55.748Z,7.47
2022-10-20T00:56:23.074Z,7.40
2022-10-20T00:58:50.321Z,7.70
2022-10-20T01:01:17.153Z,7.40
2022-10-20T01:03:50.231Z,7.13
2022-10-20T01:06:23.563Z,6.85
2022-10-20T01:08:52.413Z,7.72
2022-10-20T01:11:57.390Z,7.53
2022-10-20T01:14:39.695Z,7.22
2022-10-20T01:17:12.143Z,7.78
2022-10-20T01:20:18.561Z,7.70
2022-10-20T01:23:25.830Z,7.57
2022-10-20T01:26:01.169Z,7.03
2022-10-20T01:28:40.581Z,7.13
2022-10-20T01:31:20.621Z,7.63
2022-10-20T01:33:58.506Z,7.60
2022-10-20T01:36:35.948Z,7.22
2022-10-20T01:39:10.723Z,6.93
2022-10-20T01:41:49.305Z,6.70
2022-10-20T01:44:19.101Z,7.13
2022-10-20T01:46:46.843Z,7.30
2022-10-20T01:49:14.862Z,6.88
2022-10-20T01:54:39.678Z,8.30
2022-10-20T01:57:24.773Z,7.38
2022-10-20T02:00:18.076Z,7.53
2022-10-20T02:03:06.260Z,7.03
2022-10-20T02:05:38.759Z,7.30
2022-10-20T02:08:08.159Z,7.15
2022-10-20T02:10:43.299Z,6.80
2022-10-20T02:13:12.507Z,7.25
2022-10-20T02:15:43.398Z,6.90
2022-10-20T02:18:13.369Z,7.07
2022-10-20T02:20:43.282Z,6.72
2022-10-20T02:23:10.866Z,7.20
2022-10-20T02:25:39.205Z,6.80
2022-10-20T02:28:12.025Z,7.30
2022-10-20T02:30:39.926Z,7.05
2022-10-20T02:33:07.741Z,6.95
2022-10-20T02:35:34.974Z,7.03
2022-10-20T02:38:01.724Z,7.00
2022-10-20T02:40:28.386Z,7.65
2022-10-20T02:42:54.867Z,6.15
2022-10-20T02:45:21.345Z,7.07
2022-10-20T02:47:47.781Z,7.15
2022-10-20T02:50:14.349Z,6.47
2022-10-20T02:52:41.265Z,7.30
2022-10-20T02:55:08.245Z,6.57
2022-10-20T02:57:35.272Z,6.78
2022-10-20T03:00:01.915Z,6.10
2022-10-20T03:02:28.382Z,7.10
2022-10-20T03:04:54.881Z,6.80
2022-10-20T03:07:21.447Z,6.68
2022-10-20T03:09:55.429Z,6.53
2022-10-20T03:12:21.979Z,7.25
2022-10-20T03:14:48.539Z,6.93
2022-10-20T03:17:14.949Z,6.68
2022-10-20T03:19:41.432Z,7.18
2022-10-20T03:22:07.978Z,6.40
2022-10-20T03:24:34.435Z,6.07
2022-10-20T03:27:00.874Z,6.72
2022-10-20T03:29:27.312Z,6.47
2022-10-20T03:31:53.878Z,6.53
2022-10-20T03:34:20.369Z,6.32
2022-10-20T03:36:48.998Z,6.00
2022-10-20T03:39:17.896Z,6.43
2022-10-20T03:41:44.348Z,6.60
2022-10-20T03:44:11.361Z,5.75
2022-10-20T03:46:37.897Z,6.07
2022-10-20T03:49:06.821Z,6.18
2022-10-20T03:51:35.657Z,6.10
2022-10-20T03:54:02.221Z,6.53
2022-10-20T03:56:28.681Z,6.07
2022-10-20T03:58:55.163Z,6.15
2022-10-20T04:01:26.965Z,5.28
2022-10-20T04:03:55.725Z,6.32
2022-10-20T04:06:24.545Z,6.65
2022-10-20T04:08:51.024Z,5.70
2022-10-20T04:11:17.554Z,5.82
2022-10-20T04:13:46.890Z,6.18
2022-10-20T04:16:13.472Z,6.05
2022-10-20T04:18:41.129Z,6.03
2022-10-20T04:21:07.638Z,6.63
2022-10-20T04:23:38.758Z,5.93
2022-10-20T04:26:12.373Z,5.70
2022-10-20T04:28:38.926Z,6.45
2022-10-20T04:31:06.338Z,5.80
2022-10-20T04:33:33.716Z,6.20
2022-10-20T04:36:02.117Z,5.65
2022-10-20T04:38:29.793Z,6.68
2022-10-20T04:41:00.297Z,6.10
2022-10-20T04:43:32.540Z,5.97
2022-10-20T04:46:08.392Z,6.47
2022-10-20T04:48:36.189Z,6.03
2022-10-20T04:51:08.596Z,6.10
2022-10-20T04:53:35.226Z,5.55
2022-10-20T04:56:05.464Z,5.53
2022-10-20T04:58:32.637Z,5.82
2022-10-20T05:01:05.787Z,6.03
2022-10-20T05:03:32.768Z,5.20
2022-10-20T05:06:12.734Z,6.90
2022-10-20T05:08:40.708Z,6.03
2022-10-20T05:11:09.118Z,5.57
2022-10-20T05:13:36.937Z,5.97
2022-10-20T05:16:04.532Z,6.43
2022-10-20T05:18:31.729Z,6.35
2022-10-20T05:21:08.179Z,5.75
2022-10-20T05:23:37.662Z,6.25
2022-10-20T05:26:14.040Z,6.15
2022-10-20T05:28:44.398Z,6.45
2022-10-20T05:31:11.027Z,5.97
2022-10-20T05:33:38.423Z,5.97
2022-10-20T05:36:15.875Z,6.07
2022-10-20T05:38:44.462Z,6.20
2022-10-20T05:41:20.750Z,7.45
2022-10-20T05:43:51.630Z,6.35
2022-10-20T05:46:18.927Z,6.15
2022-10-20T05:48:48.866Z,6.10
2022-10-20T05:51:18.689Z,9.00
2022-10-20T05:53:47.040Z,6.90
2022-10-20T05:56:15.865Z,6.13
2022-10-20T05:58:43.014Z,5.72
2022-10-20T06:01:09.531Z,6.72
2022-10-20T06:03:36.922Z,6.45
2022-10-20T06:06:05.396Z,6.90
2022-10-20T06:08:33.121Z,6.67
2022-10-20T06:11:09.404Z,6.68
2022-10-20T06:13:36.359Z,6.80
2022-10-20T06:16:10.751Z,6.03
2022-10-20T06:18:40.581Z,5.90
2022-10-20T06:21:13.430Z,6.65
2022-10-20T06:23:47.420Z,6.95
2022-10-20T06:26:19.969Z,6.30
2022-10-20T06:28:48.552Z,6.22
2022-10-20T06:31:23.626Z,5.80
2022-10-20T06:33:51.185Z,6.80
2022-10-20T06:36:18.982Z,7.25
2022-10-20T06:38:57.506Z,6.65
2022-10-20T06:41:25.462Z,6.32
2022-10-20T06:43:58.169Z,6.85
2022-10-20T06:46:25.687Z,6.78
2022-10-20T06:48:55.027Z,7.05
2022-10-20T06:51:26.970Z,6.63
2022-10-20T06:53:58.959Z,7.50
2022-10-20T06:56:34.541Z,6.55
2022-10-20T06:59:02.601Z,7.13
2022-10-20T07:01:32.085Z,6.90
2022-10-20T07:06:35.324Z,6.82
2022-10-20T07:09:08.174Z,7.10
2022-10-20T07:11:35.134Z,6.80
2022-10-20T07:14:02.809Z,7.57
2022-10-20T07:16:32.775Z,7.50
2022-10-20T07:19:00.445Z,7.25
2022-10-20T07:21:32.402Z,7.75
2022-10-20T07:24:03.754Z,7.60
2022-10-20T07:26:32.949Z,7.30
2022-10-20T07:29:01.431Z,7.60
2022-10-20T07:31:31.554Z,6.40
2022-10-20T07:34:24.025Z,7.32
2022-10-20T07:36:57.864Z,6.68
2022-10-20T07:39:25.344Z,7.00
2022-10-20T07:41:52.533Z,7.43
2022-10-20T07:44:22.859Z,7.18
2022-10-20T07:46:50.419Z,7.38
2022-10-20T07:52:06.610Z,6.88
2022-10-20T07:54:45.494Z,7.15
2022-10-20T07:57:11.959Z,8.27
2022-10-20T07:59:38.586Z,7.55
2022-10-20T08:02:05.309Z,7.82
2022-10-20T08:04:32.123Z,8.23
2022-10-20T08:07:00.116Z,8.07
2022-10-20T08:09:26.754Z,7.18
2022-10-20T08:11:55.517Z,7.03
2022-10-20T08:14:27.230Z,7.18
2022-10-20T08:16:59.843Z,7.20
2022-10-20T08:19:35.718Z,7.28
2022-10-20T08:22:02.606Z,7.05
2022-10-20T08:24:29.137Z,7.20
2022-10-20T08:26:55.683Z,6.85
2022-10-20T08:29:26.431Z,6.93
2022-10-20T08:31:52.992Z,7.55
2022-10-20T08:34:32.783Z,7.15
2022-10-20T08:37:00.228Z,7.20
2022-10-20T08:39:26.951Z,6.45
2022-10-20T08:42:08.680Z,6.95
2022-10-20T08:44:50.127Z,6.72
2022-10-20T08:47:33.627Z,7.97
2022-10-20T08:50:24.139Z,7.32
2022-10-20T08:53:03.544Z,8.15
2022-10-20T08:55:33.530Z,7.07
2022-10-20T08:58:12.615Z,7.35
2022-10-20T09:00:40.406Z,6.95
2022-10-20T09:03:17.895Z,7.00
2022-10-20T09:05:50.807Z,6.88
2022-10-20T09:08:30.450Z,7.53
2022-10-20T09:10:57.181Z,8.05
2022-10-20T09:13:29.359Z,7.95
2022-10-20T09:16:40.617Z,7.95
2022-10-20T09:19:22.880Z,8.15
2022-10-20T09:21:57.392Z,7.15
2022-10-20T09:24:31.469Z,7.47
2022-10-20T09:27:44.228Z,7.47
2022-10-20T09:30:33.810Z,7.20
2022-10-20T09:33:01.055Z,7.85
2022-10-20T09:35:31.566Z,7.75
2022-10-20T09:38:10.179Z,8.02
2022-10-20T09:41:00.004Z,7.43
2022-10-20T09:43:39.074Z,8.25
2022-10-20T09:46:09.373Z,8.32
2022-10-20T09:51:31.802Z,7.38
2022-10-20T09:54:20.194Z,8.40
2022-10-20T09:56:49.410Z,8.30
2022-10-20T09:59:35.605Z,7.63
2022-10-20T10:02:26.776Z,8.57
2022-10-20T10:04:57.796Z,9.30
2022-10-20T10:07:27.388Z,8.70
2022-10-20T10:12:38.379Z,10.98
2022-10-20T10:15:26.861Z,10.90
2022-10-20T10:17:57.584Z,10.60
2022-10-20T10:20:42.446Z,9.68
2022-10-20T10:23:23.106Z,11.10
2022-10-20T10:26:09.304Z,10.07
2022-10-20T10:28:49.296Z,10.02
2022-10-20T10:31:28.105Z,10.50
2022-10-20T10:34:39.406Z,11.48
2022-10-20T10:37:18.753Z,10.93
2022-10-20T10:39:47.729Z,11.65
2022-10-20T10:42:42.969Z,10.98
2022-10-20T10:45:25.873Z,11.30
2022-10-20T10:48:06.253Z,12.00
2022-10-20T10:50:53.149Z,12.05
2022-10-20T10:53:42.384Z,11.77
2022-10-20T10:56:22.340Z,11.57
2022-10-20T10:59:07.805Z,12.65
2022-10-20T11:01:56.258Z,12.38
2022-10-20T11:05:06.481Z,12.05
2022-10-20T11:07:34.934Z,13.27
2022-10-20T11:10:05.030Z,13.77
2022-10-20T11:13:02.247Z,13.32
2022-10-20T11:15:50.708Z,12.82
2022-10-20T11:18:51.518Z,13.60
2022-10-20T11:21:40.404Z,14.15
2022-10-20T11:24:48.194Z,13.13
2022-10-20T11:27:36.568Z,14.00
2022-10-20T11:30:16.363Z,14.02
2022-10-20T11:33:09.164Z,14.05
2022-10-20T11:35:55.928Z,15.25
2022-10-20T11:46:36.234Z,14.77
2022-10-20T11:50:00.986Z,14.90
2022-10-20T15:04:32.151Z,17.75
2022-10-20T15:07:04.786Z,17.92
2022-10-20T15:09:40.568Z,18.90
2022-10-20T15:12:28.874Z,16.80
2022-10-20T15:15:09.932Z,16.85
2022-10-20T15:17:48.283Z,16.65
2022-10-20T15:20:36.355Z,16.88
2022-10-20T15:23:07.879Z,17.92
2022-10-20T15:26:14.057Z,16.83
2022-10-20T15:28:46.513Z,17.17
2022-10-20T15:31:24.136Z,16.00
2022-10-20T15:34:01.611Z,16.13
2022-10-20T15:36:32.899Z,16.80
2022-10-20T15:39:00.973Z,16.17
2022-10-20T15:41:30.455Z,16.13
2022-10-20T15:46:29.084Z,16.20
2022-10-20T15:48:55.733Z,16.38
2022-10-20T15:51:27.243Z,15.43
2022-10-20T15:54:05.058Z,16.45
2022-10-20T15:56:40.931Z,16.42
2022-10-20T15:59:15.426Z,15.82
2022-10-20T16:01:42.103Z,16.80
2022-10-20T16:04:27.582Z,16.73
2022-10-20T16:06:59.105Z,16.63
2022-10-20T16:09:28.651Z,16.98
2022-10-20T16:11:58.324Z,16.92
2022-10-20T16:14:27.536Z,18.08
2022-10-20T16:16:54.410Z,17.05
2022-10-20T16:19:20.991Z,17.42
2022-10-20T16:21:47.526Z,17.35
2022-10-20T16:24:16.466Z,17.45
2022-10-20T16:26:49.321Z,19.40
2022-10-20T16:29:15.818Z,18.30
2022-10-20T16:31:42.287Z,19.10
2022-10-20T16:34:08.837Z,20.23
2022-10-20T16:36:35.338Z,19.70
2022-10-20T16:39:04.519Z,21.10
2022-10-20T16:41:31.005Z,19.98
2022-10-20T16:44:00.971Z,20.48
2022-10-20T16:46:27.960Z,22.05
2022-10-20T16:49:00.109Z,21.75
2022-10-20T16:51:26.780Z,21.70
2022-10-20T16:53:56.383Z,23.67
2022-10-20T16:56:25.224Z,23.40
2022-10-20T16:58:52.270Z,23.35
2022-10-20T17:01:21.394Z,22.98
2022-10-20T17:03:50.803Z,23.08
2022-10-20T17:06:21.223Z,22.88
2022-10-20T17:08:54.002Z,22.27
2022-10-20T17:11:27.865Z,24.27
2022-10-20T17:13:55.371Z,24.27
2022-10-20T17:16:28.389Z,23.00
2022-10-20T17:18:57.486Z,22.77
2022-10-20T17:21:33.718Z,22.67
2022-10-20T17:24:01.100Z,24.30
2022-10-20T17:26:30.419Z,23.17
2022-10-20T17:28:59.228Z,22.00
2022-10-20T17:31:29.340Z,22.70
2022-10-20T17:34:00.218Z,22.25
2022-10-20T17:36:30.326Z,22.10
2022-10-20T17:39:01.540Z,23.33
2022-10-20T17:41:28.648Z,21.48
2022-10-20T17:44:01.693Z,22.13
2022-10-20T17:46:28.599Z,21.85
2022-10-20T17:48:55.195Z,21.88
2022-10-20T17:51:26.777Z,21.88
2022-10-20T17:53:57.839Z,21.48
2022-10-20T17:56:33.803Z,21.35
2022-10-20T17:59:42.515Z,18.83
2022-10-20T18:01:55.888Z,19.08
2022-10-20T18:06:49.577Z,20.33
2022-10-20T18:09:18.038Z,21.63
2022-10-20T18:11:51.225Z,20.33
2022-10-20T18:14:18.732Z,19.85
2022-10-20T18:16:49.109Z,21.42
2022-10-20T18:19:18.209Z,20.70
2022-10-20T18:21:45.468Z,21.52
2022-10-20T18:24:15.076Z,21.20
2022-10-20T18:26:42.779Z,22.05
2022-10-20T18:29:11.217Z,22.00
2022-10-20T18:31:41.969Z,22.75
2022-10-20T18:34:23.033Z,20.65
2022-10-20T18:36:50.959Z,22.30
2022-10-20T18:39:17.774Z,22.25
2022-10-20T18:41:45.424Z,21.70
2022-10-20T18:44:17.168Z,21.00
2022-10-20T18:46:46.207Z,22.17
2022-10-20T18:49:15.992Z,22.58
2022-10-20T18:54:19.065Z,21.80
2022-10-20T18:56:47.057Z,21.60
2022-10-20T18:59:16.124Z,22.38
2022-10-20T19:01:42.967Z,23.85
2022-10-20T19:04:10.747Z,21.33
2022-10-20T19:09:49.185Z,22.27
2022-10-20T19:12:18.887Z,23.15
2022-10-20T19:14:45.538Z,22.15
2022-10-20T19:17:13.620Z,21.50
2022-10-20T19:19:41.719Z,23.23
2022-10-20T19:22:08.283Z,22.67
2022-10-20T19:24:42.612Z,22.23
2022-10-20T19:29:56.043Z,21.73
2022-10-20T19:32:22.696Z,21.55
2022-10-20T19:34:49.190Z,22.85
2022-10-20T19:37:15.715Z,21.85
2022-10-20T19:39:42.832Z,22.08
2022-10-20T19:42:10.912Z,21.90
2022-10-20T19:44:38.098Z,22.38
2022-10-20T19:47:06.324Z,21.67
2022-10-20T19:49:33.093Z,22.90
2022-10-20T19:51:59.922Z,22.25
2022-10-20T19:54:31.497Z,22.33
2022-10-20T19:56:57.988Z,23.65
2022-10-20T19:59:24.978Z,24.83
2022-10-20T20:01:52.568Z,23.58
2022-10-20T20:04:19.562Z,23.40
2022-10-20T20:06:46.119Z,23.05
2022-10-20T20:09:15.405Z,24.13
2022-10-20T20:11:42.708Z,23.05
2022-10-20T20:14:15.568Z,23.67
2022-10-20T20:19:16.567Z,23.35
2022-10-20T20:21:43.332Z,23.97
2022-10-20T20:24:12.426Z,23.15
2022-10-20T20:26:38.963Z,23.15
2022-10-20T20:29:06.248Z,23.77
2022-10-20T20:31:33.660Z,23.75
2022-10-20T20:34:00.839Z,24.38
2022-10-20T20:36:28.210Z,25.00
2022-10-20T20:38:59.454Z,24.85
2022-10-20T20:41:28.253Z,25.60
2022-10-20T20:43:55.953Z,24.70
2022-10-20T20:46:24.342Z,23.65
2022-10-20T20:48:51.205Z,24.38
2022-10-20T20:51:18.103Z,23.45
2022-10-20T20:53:44.654Z,24.15
2022-10-20T20:56:16.193Z,23.58
2022-10-20T20:58:46.694Z,24.75
2022-10-20T21:01:17.181Z,24.95
2022-10-20T21:03:44.363Z,25.42
2022-10-20T21:06:13.105Z,25.30
2022-10-20T21:08:42.435Z,24.45
2022-10-20T21:11:12.457Z,24.20
2022-10-20T21:13:40.041Z,23.90
2022-10-20T21:16:29.724Z,23.08
2022-10-20T21:18:58.801Z,23.85
2022-10-20T21:21:36.792Z,24.30
2022-10-20T21:24:04.969Z,22.65
2022-10-20T21:26:32.488Z,23.80
2022-10-20T21:28:59.341Z,23.58
2022-10-20T21:31:27.667Z,23.63
2022-10-20T21:34:02.881Z,22.92
2022-10-20T21:36:32.263Z,23.00
2022-10-20T21:38:59.582Z,23.33
2022-10-20T21:41:30.893Z,24.08
2022-10-20T21:43:59.207Z,22.83
2022-10-20T21:46:28.706Z,23.45
2022-10-20T21:51:27.024Z,21.98
2022-10-20T21:53:59.069Z,22.45
2022-10-20T21:56:25.914Z,23.08
2022-10-20T21:58:53.402Z,23.65
2022-10-20T22:01:23.283Z,24.83
2022-10-20T22:03:51.266Z,23.95
2022-10-20T22:06:20.431Z,23.90
2022-10-20T22:08:49.505Z,25.02
2022-10-20T22:11:19.170Z,24.00
2022-10-20T22:13:47.166Z,22.55
2022-10-20T22:16:16.493Z,22.35
2022-10-20T22:18:43.261Z,22.45
2022-10-20T22:21:15.428Z,22.52
2022-10-20T22:23:43.264Z,21.27
2022-10-20T22:26:10.298Z,20.65
2022-10-20T22:28:37.673Z,19.45
2022-10-20T22:31:05.438Z,20.60
2022-10-20T22:33:32.312Z,19.23
2022-10-20T22:35:58.862Z,18.80
2022-10-20T22:38:25.356Z,17.90
2022-10-20T22:40:51.819Z,17.80
2022-10-20T22:43:18.354Z,16.55
2022-10-20T22:45:44.825Z,18.70
2022-10-20T22:48:11.319Z,16.60
2022-10-20T22:50:37.769Z,18.55
2022-10-20T22:53:04.274Z,17.65
2022-10-20T22:55:30.769Z,17.52
2022-10-20T23:00:23.781Z,17.20
2022-10-20T23:02:50.306Z,17.02
2022-10-20T23:05:16.863Z,17.08
2022-10-20T23:07:43.385Z,16.85
2022-10-20T23:10:10.204Z,17.25
2022-10-20T23:12:37.071Z,17.83
2022-10-20T23:15:04.683Z,17.70
2022-10-20T23:17:31.256Z,16.02
2022-10-20T23:19:57.750Z,17.00
2022-10-20T23:22:24.373Z,17.65
2022-10-20T23:24:50.888Z,16.52
2022-10-20T23:27:17.433Z,17.13
2022-10-20T23:29:43.914Z,17.60
2022-10-20T23:32:10.462Z,17.23
2022-10-20T23:34:37.010Z,17.23
2022-10-20T23:37:03.505Z,17.45
2022-10-20T23:39:29.985Z,18.10
2022-10-20T23:41:56.481Z,16.90
2022-10-20T23:44:22.979Z,17.20
2022-10-20T23:46:49.483Z,16.52
2022-10-20T23:49:16.026Z,18.48
2022-10-20T23:51:42.519Z,18.30
2022-10-20T23:54:09.103Z,18.35
2022-10-20T23:56:35.564Z,18.00
2022-10-20T23:59:02.064Z,16.60
